Farm — LBHF — position and weather

sailwx.info

Track history (hours):
 
Tides and Currents Weather Stations Pressure Air Temp Water Temp Dewpoint Dewpoint Depression Visibility Wind Speed Wind Dir Waves Ship Positions

Farm

Last reported at 2018-Jan-23 07:59 UTC. Time now 2018-Jan-23 08:22 UTC.
Position N 69°45' E 030°03'.

Length 46 m.

Type: Law enforcement. MMSI: 257069200.

Date/timePositionNaut miles runAvg speedWind from/ knotsBaromVisibWave heightAir tempDewpointWater temp
2018-Jan-23 07:59N 69°45' E 030°03'0 0.0
2018-Jan-23 07:29N 69°45' E 030°03'0 0.0
2018-Jan-23 06:59N 69°45' E 030°03'0 0.0
2018-Jan-23 06:29N 69°45' E 030°03'0 0.0
2018-Jan-23 05:59N 69°45' E 030°03'0 0.0
2018-Jan-23 05:29N 69°45' E 030°03'0 0.0
2018-Jan-23 04:59N 69°45' E 030°03'0 0.0
2018-Jan-23 04:29N 69°45' E 030°03'0 0.0
2018-Jan-23 03:59N 69°45' E 030°03'0 0.1
2018-Jan-23 03:29N 69°45' E 030°03'0 0.0
2018-Jan-23 02:59N 69°45' E 030°03'0 0.0
2018-Jan-23 02:29N 69°45' E 030°04'0 0.0
2018-Jan-23 01:59N 69°45' E 030°03'0 0.0
2018-Jan-23 01:29N 69°45' E 030°03'0 0.0
2018-Jan-23 00:59N 69°45' E 030°03'0 0.0
2018-Jan-23 00:29N 69°45' E 030°03'0 0.0
2018-Jan-22 23:59N 69°45' E 030°03'0 0.0
2018-Jan-22 23:29N 69°45' E 030°03'0 0.0
2018-Jan-22 22:59N 69°45' E 030°03'0 0.0
2018-Jan-22 22:29N 69°45' E 030°03'0 0.0
2018-Jan-22 21:59N 69°45' E 030°03'0 0.0
2018-Jan-22 21:29N 69°45' E 030°03'0 0.0
2018-Jan-22 20:59N 69°45' E 030°03'0 0.0
2018-Jan-22 20:26N 69°45' E 030°03'0 0.0
2018-Jan-22 19:59N 69°45' E 030°03'0 0.0
2018-Jan-22 19:29N 69°45' E 030°03'0 0.0
2018-Jan-22 18:59N 69°45' E 030°03'0 0.0
2018-Jan-22 18:29N 69°45' E 030°03'0 0.0
2018-Jan-22 17:59N 69°45' E 030°03'1 1.7
2018-Jan-22 17:29N 69°46' E 030°05'4 7.7
2018-Jan-22 17:00N 69°50' E 030°06'5 9.8
2018-Jan-22 16:30N 69°54' E 029°59'4 8.3
2018-Jan-22 15:59N 69°54' E 029°46'5 9.8
2018-Jan-22 15:30N 69°49' E 029°47'5 9.1
2018-Jan-22 15:00N 69°45' E 029°42'5 9.8
2018-Jan-22 14:29N 69°46' E 029°57'4 9.1
2018-Jan-22 14:00N 69°49' E 030°06'5 9.8
2018-Jan-22 13:30N 69°54' E 029°59'4 8.6
2018-Jan-22 13:00N 69°55' E 029°47'510.1
2018-Jan-22 12:30N 69°50' E 029°47'5 9.7
2018-Jan-22 12:00N 69°45' E 029°42'510.0
2018-Jan-22 11:29N 69°46' E 029°57'2 4.5
2018-Jan-22 11:00N 69°47' E 030°03'2 4.4
2018-Jan-22 10:30N 69°46' E 029°57'3 6.3
2018-Jan-22 10:00N 69°45' E 029°48'2 4.6
2018-Jan-22 09:30N 69°46' E 029°42'2 4.0
2018-Jan-22 09:00N 69°45' E 029°47'3 5.9
2018-Jan-22 08:30N 69°46' E 029°55'3 5.9
2018-Jan-22 08:00N 69°47' E 030°03'3 5.4
2018-Jan-22 07:29N 69°45' E 030°04'0 0.6
2018-Jan-22 07:00N 69°44' E 030°03'0 0.0
2018-Jan-22 06:30N 69°44' E 030°03'0 0.0
2018-Jan-22 06:00N 69°44' E 030°03'0 0.4
2018-Jan-22 05:30N 69°44' E 030°03'1 1.4
2018-Jan-22 05:00N 69°45' E 030°04'1 1.3
2018-Jan-22 04:30N 69°46' E 030°05'2 4.2
2018-Jan-22 03:59N 69°48' E 030°06'3 5.5
2018-Jan-22 03:30N 69°50' E 030°07'3 6.2
2018-Jan-22 03:00N 69°53' E 030°09'5 9.2
2018-Jan-22 02:29N 69°57' E 030°17'5 9.4
2018-Jan-22 02:00N 70°01' E 030°26'5 9.6
2018-Jan-22 01:30N 70°04' E 030°35'510.0
2018-Jan-22 00:58N 70°08' E 030°44'510.0
2018-Jan-22 00:29N 70°12' E 030°54'510.1
2018-Jan-22 00:00N 70°16' E 031°03'4 8.8
2018-Jan-21 23:29N 70°20' E 031°05'4 8.8
2018-Jan-21 23:00N 70°25' E 031°02'4 9.0
2018-Jan-21 22:30N 70°29' E 030°58'4 9.1
2018-Jan-21 22:00N 70°32' E 030°48'5 9.2
2018-Jan-21 21:30N 70°35' E 030°38'5 9.1
2018-Jan-21 21:00N 70°38' E 030°28'5 9.1
2018-Jan-21 20:29N 70°41' E 030°17'4 8.9
2018-Jan-21 20:00N 70°44' E 030°07'5 9.2
2018-Jan-21 19:29N 70°46' E 029°54'5 9.6
2018-Jan-21 18:59N 70°49' E 029°43'5 9.1
2018-Jan-21 18:29N 70°51' E 029°32'510.0
2018-Jan-21 18:00N 70°54' E 029°19'5 9.4
2018-Jan-21 17:30N 70°57' E 029°07'5 9.8
2018-Jan-21 17:00N 70°59' E 028°55'5 9.5
2018-Jan-21 16:30N 71°02' E 028°42'5 9.7
2018-Jan-21 16:00N 71°05' E 028°30'5 9.9
2018-Jan-21 15:30N 71°07' E 028°17'510.6
2018-Jan-21 15:00N 71°08' E 028°01'510.0
2018-Jan-21 14:30N 71°09' E 027°45'5 9.9
2018-Jan-21 14:00N 71°08' E 027°30'510.1
2018-Jan-21 13:29N 71°06' E 027°15'4 9.3
2018-Jan-21 13:00N 71°05' E 027°03'5 9.4
2018-Jan-21 12:30N 71°03' E 026°49'5 9.3
2018-Jan-21 12:00N 71°02' E 026°35'5 9.6
2018-Jan-21 11:30N 70°60' E 026°22'5 9.7
2018-Jan-21 11:00N 70°58' E 026°08'4 7.3
2018-Jan-21 10:30N 70°59' E 025°57'1 2.3
2018-Jan-21 10:00N 70°58' E 025°56'3 5.2
2018-Jan-21 09:30N 70°56' E 025°50'0 0.9
2018-Jan-21 09:00N 70°55' E 025°51'0 0.8
2018-Jan-21 08:30N 70°55' E 025°51'0 0.6
2018-Jan-21 07:59N 70°55' E 025°52'1 2.0
2018-Jan-21 07:29N 70°55' E 025°50'1 2.2
2018-Jan-21 07:00N 70°57' E 025°50'1 1.1
2018-Jan-21 06:30N 70°56' E 025°51'0 1.0
2018-Jan-21 06:00N 70°56' E 025°52'0 0.9
2018-Jan-21 05:30N 70°55' E 025°52'0 0.7
2018-Jan-21 05:00N 70°55' E 025°52'0 0.6
2018-Jan-21 04:30N 70°55' E 025°52'0 0.7
2018-Jan-21 04:00N 70°55' E 025°51'2 3.1
2018-Jan-21 03:30N 70°57' E 025°50'0 0.6
2018-Jan-21 03:00N 70°56' E 025°51'0 0.5
2018-Jan-21 02:30N 70°56' E 025°51'0 0.5
2018-Jan-21 02:00N 70°56' E 025°51'0 0.5
2018-Jan-21 01:30N 70°55' E 025°51'0 0.6
2018-Jan-21 00:59N 70°55' E 025°51'0 0.5
2018-Jan-21 00:28N 70°55' E 025°51'0 0.6
2018-Jan-21 00:00N 70°55' E 025°51'0 0.4
2018-Jan-20 23:29N 70°54' E 025°51'0 0.8
2018-Jan-20 23:00N 70°55' E 025°50'1 2.6
2018-Jan-20 22:30N 70°55' E 025°46'1 2.7
2018-Jan-20 22:00N 70°55' E 025°42'3 5.5
2018-Jan-20 21:30N 70°56' E 025°34'3 5.4
2018-Jan-20 21:00N 70°57' E 025°28'3 6.8
2018-Jan-20 20:30N 70°59' E 025°19'38 4.6
2018-Jan-20 12:24N 70°40' E 023°41'1 3.4
2018-Jan-20 12:00N 70°40' E 023°37'2 4.8
2018-Jan-20 11:30N 70°39' E 023°31'0 1.0
2018-Jan-20 11:00N 70°38' E 023°32'0 1.0
2018-Jan-20 10:30N 70°38' E 023°32'1 1.7
2018-Jan-20 10:00N 70°38' E 023°30'1 1.4
2018-Jan-20 09:30N 70°39' E 023°29'1 1.2
2018-Jan-20 09:00N 70°39' E 023°31'0 1.0
2018-Jan-20 08:30N 70°38' E 023°32'1 1.5
2018-Jan-20 08:00N 70°39' E 023°30'0 0.3
2018-Jan-20 07:30N 70°39' E 023°30'0 0.7
2018-Jan-20 07:00N 70°39' E 023°31'0 0.8
2018-Jan-20 06:30N 70°38' E 023°32'0 0.8
2018-Jan-20 06:00N 70°38' E 023°32'0 0.7
2018-Jan-20 05:30N 70°38' E 023°33'1 1.6
2018-Jan-20 05:00N 70°38' E 023°31'0 0.5
2018-Jan-20 04:30N 70°38' E 023°31'0 0.7
2018-Jan-20 04:00N 70°38' E 023°32'0 0.4
2018-Jan-20 03:30N 70°38' E 023°32'1 2.9
2018-Jan-20 03:00N 70°39' E 023°32'1 1.3
2018-Jan-20 02:30N 70°39' E 023°32'1 1.3
2018-Jan-20 02:00N 70°38' E 023°32'1 1.1
2018-Jan-20 01:30N 70°38' E 023°32'1 2.4
2018-Jan-20 01:00N 70°39' E 023°33'1 2.3
2018-Jan-20 00:30N 70°40' E 023°35'0 0.9
2018-Jan-20 00:00N 70°39' E 023°35'1 1.3
2018-Jan-19 23:30N 70°39' E 023°35'1 1.2
2018-Jan-19 23:00N 70°38' E 023°35'2 4.2
2018-Jan-19 22:30N 70°36' E 023°35'3 5.1
2018-Jan-19 22:00N 70°34' E 023°38'3 5.2
2018-Jan-19 21:29N 70°31' E 023°40'2 5.0
2018-Jan-19 21:00N 70°28' E 023°41'2 4.7
2018-Jan-19 20:28N 70°26' E 023°39'2 4.0
2018-Jan-19 19:59N 70°24' E 023°36'2 4.3
2018-Jan-19 19:30N 70°23' E 023°31'2 4.2
2018-Jan-19 19:00N 70°21' E 023°27'2 4.7
2018-Jan-19 18:30N 70°19' E 023°24'2 4.9
2018-Jan-19 18:00N 70°17' E 023°20'2 4.8
2018-Jan-19 17:30N 70°16' E 023°15'2 4.9
2018-Jan-19 17:00N 70°14' E 023°10'2 4.8
2018-Jan-19 16:30N 70°12' E 023°07'3 5.0
2018-Jan-19 15:59N 70°09' E 023°07'3 4.9
2018-Jan-19 15:29N 70°07' E 023°07'5 9.6
2018-Jan-19 14:59N 70°02' E 023°14'4 8.2
2018-Jan-19 14:30N 69°59' E 023°19'0 0.0
2018-Jan-19 14:00N 69°59' E 023°19'2 4.3
2018-Jan-19 13:30N 70°01' E 023°17'3 5.3
2018-Jan-19 13:00N 70°03' E 023°12'0 0.7
2018-Jan-19 12:30N 70°03' E 023°11'4 7.1
2018-Jan-19 12:00N 70°06' E 023°07'610.9
2018-Jan-19 11:28N 70°12' E 023°07'510.0
2018-Jan-19 11:00N 70°14' E 023°20'1 2.9
2018-Jan-19 10:30N 70°15' E 023°24'0 0.0
2018-Jan-19 10:00N 70°15' E 023°24'0 0.0
2018-Jan-19 09:30N 70°15' E 023°24'1 3.0
2018-Jan-19 09:00N 70°14' E 023°20'1 1.1
2018-Jan-19 08:30N 70°14' E 023°19'1 2.3
2018-Jan-19 08:00N 70°15' E 023°22'0 0.2
2018-Jan-19 07:30N 70°14' E 023°22'0 0.2
2018-Jan-19 06:59N 70°14' E 023°22'0 0.3
2018-Jan-19 06:30N 70°14' E 023°22'1 1.4
2018-Jan-19 06:00N 70°14' E 023°20'1 1.4
2018-Jan-19 05:30N 70°14' E 023°18'1 1.5
2018-Jan-19 05:00N 70°14' E 023°16'1 2.9
2018-Jan-19 04:30N 70°16' E 023°16'2 3.8
2018-Jan-19 04:00N 70°17' E 023°20'1 2.9
2018-Jan-19 03:29N 70°18' E 023°22'1 2.4
2018-Jan-19 03:00N 70°19' E 023°24'1 2.3
2018-Jan-19 02:30N 70°20' E 023°26'1 2.9
2018-Jan-19 02:00N 70°21' E 023°29'1 2.9
2018-Jan-19 01:30N 70°23' E 023°31'1 2.6
2018-Jan-19 01:00N 70°24' E 023°34'1 2.0
2018-Jan-19 00:30N 70°24' E 023°35'1 1.3
2018-Jan-19 00:00N 70°25' E 023°37'1 1.7
2018-Jan-18 23:30N 70°26' E 023°38'1 1.6
2018-Jan-18 23:00N 70°26' E 023°40'1 1.3
2018-Jan-18 22:30N 70°27' E 023°40'1 1.6
2018-Jan-18 22:00N 70°28' E 023°40'1 2.1
2018-Jan-18 21:30N 70°29' E 023°41'1 2.3
2018-Jan-18 21:00N 70°30' E 023°41'1 2.8
2018-Jan-18 20:29N 70°31' E 023°40'1 2.9
2018-Jan-18 19:59N 70°33' E 023°38'1 2.7
2018-Jan-18 19:30N 70°34' E 023°38'1 2.1
2018-Jan-18 19:00N 70°35' E 023°37'1 2.3
2018-Jan-18 18:30N 70°36' E 023°35'2 4.1
2018-Jan-18 18:00N 70°38' E 023°36'1 2.6
2018-Jan-18 17:29N 70°39' E 023°37'1 3.0
2018-Jan-18 17:00N 70°40' E 023°41'0 0.2
2018-Jan-18 16:30N 70°40' E 023°41'3 6.8
2018-Jan-18 16:00N 70°40' E 023°31'4 8.7
2018-Jan-18 15:30N 70°44' E 023°37'4 8.4
2018-Jan-18 15:00N 70°47' E 023°45'3 5.7
2018-Jan-18 14:30N 70°50' E 023°46'4 7.7
2018-Jan-18 14:00N 70°54' E 023°45'4 8.7
2018-Jan-18 13:30N 70°58' E 023°47'3 5.8
2018-Jan-18 13:00N 71°00' E 023°54'0 0.0
2018-Jan-18 12:30N 71°00' E 023°54'0 0.0
2018-Jan-18 12:00N 71°00' E 023°54'0 0.0
2018-Jan-18 11:30N 71°00' E 023°54'0 0.0
2018-Jan-18 10:59N 71°00' E 023°54'0 0.0
2018-Jan-18 10:29N 71°00' E 023°54'0 0.0
2018-Jan-18 10:00N 71°00' E 023°54'0 0.0
2018-Jan-18 09:30N 71°00' E 023°54'4 7.7
2018-Jan-18 09:00N 70°57' E 023°48'511.0
2018-Jan-18 08:30N 70°52' E 023°47'611.7
2018-Jan-18 08:00N 70°46' E 023°39'611.1
2018-Jan-18 07:30N 70°41' E 023°33'3 5.3
2018-Jan-18 07:00N 70°40' E 023°41'1 1.8
2018-Jan-18 06:30N 70°40' E 023°39'1 1.2
2018-Jan-18 06:00N 70°40' E 023°37'1 1.6
2018-Jan-18 05:30N 70°39' E 023°36'2 3.4
2018-Jan-18 05:00N 70°38' E 023°36'2 3.3
2018-Jan-18 04:30N 70°36' E 023°35'2 3.2
2018-Jan-18 04:00N 70°35' E 023°37'2 3.0
2018-Jan-18 03:30N 70°33' E 023°38'1 2.8
2018-Jan-18 03:00N 70°32' E 023°39'1 3.0
2018-Jan-18 02:30N 70°30' E 023°40'2 3.4
2018-Jan-18 01:59N 70°29' E 023°41'2 3.2
2018-Jan-18 01:30N 70°27' E 023°40'2 4.1
2018-Jan-18 01:01N 70°25' E 023°38'4 3.5
2018-Jan-18 00:00N 70°22' E 023°31'0 3.7
2018-Jan-17 23:57N 70°22' E 023°31'  
Track history (hours):
 
Tides and Currents Weather Stations Pressure Air Temp Water Temp Dewpoint Dewpoint Depression Visibility Wind Speed Wind Dir Waves Ship Positions

Farm

Last reported at 2018-Jan-23 07:59 UTC. Time now 2018-Jan-23 08:22 UTC.
Position N 69°45' E 030°03'.

Length 46 m.

Type: Law enforcement. MMSI: 257069200.

Date/timePositionNaut miles runAvg speedWind from/ knotsBaromVisibWave heightAir tempDewpointWater temp
2018-Jan-23 07:59N 69°45' E 030°03'0 0.0
2018-Jan-23 07:29N 69°45' E 030°03'0 0.0
2018-Jan-23 06:59N 69°45' E 030°03'0 0.0
2018-Jan-23 06:29N 69°45' E 030°03'0 0.0
2018-Jan-23 05:59N 69°45' E 030°03'0 0.0
2018-Jan-23 05:29N 69°45' E 030°03'0 0.0
2018-Jan-23 04:59N 69°45' E 030°03'0 0.0
2018-Jan-23 04:29N 69°45' E 030°03'0 0.0
2018-Jan-23 03:59N 69°45' E 030°03'0 0.1
2018-Jan-23 03:29N 69°45' E 030°03'0 0.0
2018-Jan-23 02:59N 69°45' E 030°03'0 0.0
2018-Jan-23 02:29N 69°45' E 030°04'0 0.0
2018-Jan-23 01:59N 69°45' E 030°03'0 0.0
2018-Jan-23 01:29N 69°45' E 030°03'0 0.0
2018-Jan-23 00:59N 69°45' E 030°03'0 0.0
2018-Jan-23 00:29N 69°45' E 030°03'0 0.0
2018-Jan-22 23:59N 69°45' E 030°03'0 0.0
2018-Jan-22 23:29N 69°45' E 030°03'0 0.0
2018-Jan-22 22:59N 69°45' E 030°03'0 0.0
2018-Jan-22 22:29N 69°45' E 030°03'0 0.0
2018-Jan-22 21:59N 69°45' E 030°03'0 0.0
2018-Jan-22 21:29N 69°45' E 030°03'0 0.0
2018-Jan-22 20:59N 69°45' E 030°03'0 0.0
2018-Jan-22 20:26N 69°45' E 030°03'0 0.0
2018-Jan-22 19:59N 69°45' E 030°03'0 0.0
2018-Jan-22 19:29N 69°45' E 030°03'0 0.0
2018-Jan-22 18:59N 69°45' E 030°03'0 0.0
2018-Jan-22 18:29N 69°45' E 030°03'0 0.0
2018-Jan-22 17:59N 69°45' E 030°03'1 1.7
2018-Jan-22 17:29N 69°46' E 030°05'4 7.7
2018-Jan-22 17:00N 69°50' E 030°06'5 9.8
2018-Jan-22 16:30N 69°54' E 029°59'4 8.3
2018-Jan-22 15:59N 69°54' E 029°46'5 9.8
2018-Jan-22 15:30N 69°49' E 029°47'5 9.1
2018-Jan-22 15:00N 69°45' E 029°42'5 9.8
2018-Jan-22 14:29N 69°46' E 029°57'4 9.1
2018-Jan-22 14:00N 69°49' E 030°06'5 9.8
2018-Jan-22 13:30N 69°54' E 029°59'4 8.6
2018-Jan-22 13:00N 69°55' E 029°47'510.1
2018-Jan-22 12:30N 69°50' E 029°47'5 9.7
2018-Jan-22 12:00N 69°45' E 029°42'510.0
2018-Jan-22 11:29N 69°46' E 029°57'2 4.5
2018-Jan-22 11:00N 69°47' E 030°03'2 4.4
2018-Jan-22 10:30N 69°46' E 029°57'3 6.3
2018-Jan-22 10:00N 69°45' E 029°48'2 4.6
2018-Jan-22 09:30N 69°46' E 029°42'2 4.0
2018-Jan-22 09:00N 69°45' E 029°47'3 5.9
2018-Jan-22 08:30N 69°46' E 029°55'3 5.9
2018-Jan-22 08:00N 69°47' E 030°03'3 5.4
2018-Jan-22 07:29N 69°45' E 030°04'0 0.6
2018-Jan-22 07:00N 69°44' E 030°03'0 0.0
2018-Jan-22 06:30N 69°44' E 030°03'0 0.0
2018-Jan-22 06:00N 69°44' E 030°03'0 0.4
2018-Jan-22 05:30N 69°44' E 030°03'1 1.4
2018-Jan-22 05:00N 69°45' E 030°04'1 1.3
2018-Jan-22 04:30N 69°46' E 030°05'2 4.2
2018-Jan-22 03:59N 69°48' E 030°06'3 5.5
2018-Jan-22 03:30N 69°50' E 030°07'3 6.2
2018-Jan-22 03:00N 69°53' E 030°09'5 9.2
2018-Jan-22 02:29N 69°57' E 030°17'5 9.4
2018-Jan-22 02:00N 70°01' E 030°26'5 9.6
2018-Jan-22 01:30N 70°04' E 030°35'510.0
2018-Jan-22 00:58N 70°08' E 030°44'510.0
2018-Jan-22 00:29N 70°12' E 030°54'510.1
2018-Jan-22 00:00N 70°16' E 031°03'4 8.8
2018-Jan-21 23:29N 70°20' E 031°05'4 8.8
2018-Jan-21 23:00N 70°25' E 031°02'4 9.0
2018-Jan-21 22:30N 70°29' E 030°58'4 9.1
2018-Jan-21 22:00N 70°32' E 030°48'5 9.2
2018-Jan-21 21:30N 70°35' E 030°38'5 9.1
2018-Jan-21 21:00N 70°38' E 030°28'5 9.1
2018-Jan-21 20:29N 70°41' E 030°17'4 8.9
2018-Jan-21 20:00N 70°44' E 030°07'5 9.2
2018-Jan-21 19:29N 70°46' E 029°54'5 9.6
2018-Jan-21 18:59N 70°49' E 029°43'5 9.1
2018-Jan-21 18:29N 70°51' E 029°32'510.0
2018-Jan-21 18:00N 70°54' E 029°19'5 9.4
2018-Jan-21 17:30N 70°57' E 029°07'5 9.8
2018-Jan-21 17:00N 70°59' E 028°55'5 9.5
2018-Jan-21 16:30N 71°02' E 028°42'5 9.7
2018-Jan-21 16:00N 71°05' E 028°30'5 9.9
2018-Jan-21 15:30N 71°07' E 028°17'510.6
2018-Jan-21 15:00N 71°08' E 028°01'510.0
2018-Jan-21 14:30N 71°09' E 027°45'5 9.9
2018-Jan-21 14:00N 71°08' E 027°30'510.1
2018-Jan-21 13:29N 71°06' E 027°15'4 9.3
2018-Jan-21 13:00N 71°05' E 027°03'5 9.4
2018-Jan-21 12:30N 71°03' E 026°49'5 9.3
2018-Jan-21 12:00N 71°02' E 026°35'5 9.6
2018-Jan-21 11:30N 70°60' E 026°22'5 9.7
2018-Jan-21 11:00N 70°58' E 026°08'4 7.3
2018-Jan-21 10:30N 70°59' E 025°57'1 2.3
2018-Jan-21 10:00N 70°58' E 025°56'3 5.2
2018-Jan-21 09:30N 70°56' E 025°50'0 0.9
2018-Jan-21 09:00N 70°55' E 025°51'0 0.8
2018-Jan-21 08:30N 70°55' E 025°51'0 0.6
2018-Jan-21 07:59N 70°55' E 025°52'1 2.0
2018-Jan-21 07:29N 70°55' E 025°50'1 2.2
2018-Jan-21 07:00N 70°57' E 025°50'1 1.1
2018-Jan-21 06:30N 70°56' E 025°51'0 1.0
2018-Jan-21 06:00N 70°56' E 025°52'0 0.9
2018-Jan-21 05:30N 70°55' E 025°52'0 0.7
2018-Jan-21 05:00N 70°55' E 025°52'0 0.6
2018-Jan-21 04:30N 70°55' E 025°52'0 0.7
2018-Jan-21 04:00N 70°55' E 025°51'2 3.1
2018-Jan-21 03:30N 70°57' E 025°50'0 0.6
2018-Jan-21 03:00N 70°56' E 025°51'0 0.5
2018-Jan-21 02:30N 70°56' E 025°51'0 0.5
2018-Jan-21 02:00N 70°56' E 025°51'0 0.5
2018-Jan-21 01:30N 70°55' E 025°51'0 0.6
2018-Jan-21 00:59N 70°55' E 025°51'0 0.5
2018-Jan-21 00:28N 70°55' E 025°51'0 0.6
2018-Jan-21 00:00N 70°55' E 025°51'0 0.4
2018-Jan-20 23:29N 70°54' E 025°51'0 0.8
2018-Jan-20 23:00N 70°55' E 025°50'1 2.6
2018-Jan-20 22:30N 70°55' E 025°46'1 2.7
2018-Jan-20 22:00N 70°55' E 025°42'3 5.5
2018-Jan-20 21:30N 70°56' E 025°34'3 5.4
2018-Jan-20 21:00N 70°57' E 025°28'3 6.8
2018-Jan-20 20:30N 70°59' E 025°19'38 4.6
2018-Jan-20 12:24N 70°40' E 023°41'1 3.4
2018-Jan-20 12:00N 70°40' E 023°37'2 4.8
2018-Jan-20 11:30N 70°39' E 023°31'0 1.0
2018-Jan-20 11:00N 70°38' E 023°32'0 1.0
2018-Jan-20 10:30N 70°38' E 023°32'1 1.7
2018-Jan-20 10:00N 70°38' E 023°30'1 1.4
2018-Jan-20 09:30N 70°39' E 023°29'1 1.2
2018-Jan-20 09:00N 70°39' E 023°31'0 1.0
2018-Jan-20 08:30N 70°38' E 023°32'1 1.5
2018-Jan-20 08:00N 70°39' E 023°30'0 0.3
2018-Jan-20 07:30N 70°39' E 023°30'0 0.7
2018-Jan-20 07:00N 70°39' E 023°31'0 0.8
2018-Jan-20 06:30N 70°38' E 023°32'0 0.8
2018-Jan-20 06:00N 70°38' E 023°32'0 0.7
2018-Jan-20 05:30N 70°38' E 023°33'1 1.6
2018-Jan-20 05:00N 70°38' E 023°31'0 0.5
2018-Jan-20 04:30N 70°38' E 023°31'0 0.7
2018-Jan-20 04:00N 70°38' E 023°32'0 0.4
2018-Jan-20 03:30N 70°38' E 023°32'1 2.9
2018-Jan-20 03:00N 70°39' E 023°32'1 1.3
2018-Jan-20 02:30N 70°39' E 023°32'1 1.3
2018-Jan-20 02:00N 70°38' E 023°32'1 1.1
2018-Jan-20 01:30N 70°38' E 023°32'1 2.4
2018-Jan-20 01:00N 70°39' E 023°33'1 2.3
2018-Jan-20 00:30N 70°40' E 023°35'0 0.9
2018-Jan-20 00:00N 70°39' E 023°35'1 1.3
2018-Jan-19 23:30N 70°39' E 023°35'1 1.2
2018-Jan-19 23:00N 70°38' E 023°35'2 4.2
2018-Jan-19 22:30N 70°36' E 023°35'3 5.1
2018-Jan-19 22:00N 70°34' E 023°38'3 5.2
2018-Jan-19 21:29N 70°31' E 023°40'2 5.0
2018-Jan-19 21:00N 70°28' E 023°41'2 4.7
2018-Jan-19 20:28N 70°26' E 023°39'2 4.0
2018-Jan-19 19:59N 70°24' E 023°36'2 4.3
2018-Jan-19 19:30N 70°23' E 023°31'2 4.2
2018-Jan-19 19:00N 70°21' E 023°27'2 4.7
2018-Jan-19 18:30N 70°19' E 023°24'2 4.9
2018-Jan-19 18:00N 70°17' E 023°20'2 4.8
2018-Jan-19 17:30N 70°16' E 023°15'2 4.9
2018-Jan-19 17:00N 70°14' E 023°10'2 4.8
2018-Jan-19 16:30N 70°12' E 023°07'3 5.0
2018-Jan-19 15:59N 70°09' E 023°07'3 4.9
2018-Jan-19 15:29N 70°07' E 023°07'5 9.6
2018-Jan-19 14:59N 70°02' E 023°14'4 8.2
2018-Jan-19 14:30N 69°59' E 023°19'0 0.0
2018-Jan-19 14:00N 69°59' E 023°19'2 4.3
2018-Jan-19 13:30N 70°01' E 023°17'3 5.3
2018-Jan-19 13:00N 70°03' E 023°12'0 0.7
2018-Jan-19 12:30N 70°03' E 023°11'4 7.1
2018-Jan-19 12:00N 70°06' E 023°07'610.9
2018-Jan-19 11:28N 70°12' E 023°07'510.0
2018-Jan-19 11:00N 70°14' E 023°20'1 2.9
2018-Jan-19 10:30N 70°15' E 023°24'0 0.0
2018-Jan-19 10:00N 70°15' E 023°24'0 0.0
2018-Jan-19 09:30N 70°15' E 023°24'1 3.0
2018-Jan-19 09:00N 70°14' E 023°20'1 1.1
2018-Jan-19 08:30N 70°14' E 023°19'1 2.3
2018-Jan-19 08:00N 70°15' E 023°22'0 0.2
2018-Jan-19 07:30N 70°14' E 023°22'0 0.2
2018-Jan-19 06:59N 70°14' E 023°22'0 0.3
2018-Jan-19 06:30N 70°14' E 023°22'1 1.4
2018-Jan-19 06:00N 70°14' E 023°20'1 1.4
2018-Jan-19 05:30N 70°14' E 023°18'1 1.5
2018-Jan-19 05:00N 70°14' E 023°16'1 2.9
2018-Jan-19 04:30N 70°16' E 023°16'2 3.8
2018-Jan-19 04:00N 70°17' E 023°20'1 2.9
2018-Jan-19 03:29N 70°18' E 023°22'1 2.4
2018-Jan-19 03:00N 70°19' E 023°24'1 2.3
2018-Jan-19 02:30N 70°20' E 023°26'1 2.9
2018-Jan-19 02:00N 70°21' E 023°29'1 2.9
2018-Jan-19 01:30N 70°23' E 023°31'1 2.6
2018-Jan-19 01:00N 70°24' E 023°34'1 2.0
2018-Jan-19 00:30N 70°24' E 023°35'1 1.3
2018-Jan-19 00:00N 70°25' E 023°37'1 1.7
2018-Jan-18 23:30N 70°26' E 023°38'1 1.6
2018-Jan-18 23:00N 70°26' E 023°40'1 1.3
2018-Jan-18 22:30N 70°27' E 023°40'1 1.6
2018-Jan-18 22:00N 70°28' E 023°40'1 2.1
2018-Jan-18 21:30N 70°29' E 023°41'1 2.3
2018-Jan-18 21:00N 70°30' E 023°41'1 2.8
2018-Jan-18 20:29N 70°31' E 023°40'1 2.9
2018-Jan-18 19:59N 70°33' E 023°38'1 2.7
2018-Jan-18 19:30N 70°34' E 023°38'1 2.1
2018-Jan-18 19:00N 70°35' E 023°37'1 2.3
2018-Jan-18 18:30N 70°36' E 023°35'2 4.1
2018-Jan-18 18:00N 70°38' E 023°36'1 2.6
2018-Jan-18 17:29N 70°39' E 023°37'1 3.0
2018-Jan-18 17:00N 70°40' E 023°41'0 0.2
2018-Jan-18 16:30N 70°40' E 023°41'3 6.8
2018-Jan-18 16:00N 70°40' E 023°31'4 8.7
2018-Jan-18 15:30N 70°44' E 023°37'4 8.4
2018-Jan-18 15:00N 70°47' E 023°45'3 5.7
2018-Jan-18 14:30N 70°50' E 023°46'4 7.7
2018-Jan-18 14:00N 70°54' E 023°45'4 8.7
2018-Jan-18 13:30N 70°58' E 023°47'3 5.8
2018-Jan-18 13:00N 71°00' E 023°54'0 0.0
2018-Jan-18 12:30N 71°00' E 023°54'0 0.0
2018-Jan-18 12:00N 71°00' E 023°54'0 0.0
2018-Jan-18 11:30N 71°00' E 023°54'0 0.0
2018-Jan-18 10:59N 71°00' E 023°54'0 0.0
2018-Jan-18 10:29N 71°00' E 023°54'0 0.0
2018-Jan-18 10:00N 71°00' E 023°54'0 0.0
2018-Jan-18 09:30N 71°00' E 023°54'4 7.7
2018-Jan-18 09:00N 70°57' E 023°48'511.0
2018-Jan-18 08:30N 70°52' E 023°47'611.7
2018-Jan-18 08:00N 70°46' E 023°39'611.1
2018-Jan-18 07:30N 70°41' E 023°33'3 5.3
2018-Jan-18 07:00N 70°40' E 023°41'1 1.8
2018-Jan-18 06:30N 70°40' E 023°39'1 1.2
2018-Jan-18 06:00N 70°40' E 023°37'1 1.6
2018-Jan-18 05:30N 70°39' E 023°36'2 3.4
2018-Jan-18 05:00N 70°38' E 023°36'2 3.3
2018-Jan-18 04:30N 70°36' E 023°35'2 3.2
2018-Jan-18 04:00N 70°35' E 023°37'2 3.0
2018-Jan-18 03:30N 70°33' E 023°38'1 2.8
2018-Jan-18 03:00N 70°32' E 023°39'1 3.0
2018-Jan-18 02:30N 70°30' E 023°40'2 3.4
2018-Jan-18 01:59N 70°29' E 023°41'2 3.2
2018-Jan-18 01:30N 70°27' E 023°40'2 4.1
2018-Jan-18 01:01N 70°25' E 023°38'4 3.5
2018-Jan-18 00:00N 70°22' E 023°31'0 3.7
2018-Jan-17 23:57N 70°22' E 023°31'  

Dump ship's entire track history